Time;durP1;ratioP1;P1;durP2;ratioP2;P2;SDS_P1;SDS_P2;PMS_P1;PMS_P2;Temp;Humidity;BMP_temperature;BMP_pressure;BME280_temperature;BME280_humidity;BME280_pressure;Samples;Min_cycle;Max_cycle;Signal;HPM_P1;HPM_P2
2022/06/24 00:00:39;;;;;;;14.55;8.18;;;;;;;23.23;61.86;100672.44;5034763;28;20085;-75
2022/06/24 00:03:06;;;;;;;16.65;8.05;;;;;;;23.23;61.58;100672.44;5035489;28;20042;-75
2022/06/24 00:05:33;;;;;;;15.30;8.52;;;;;;;23.22;61.65;100668.03;5035681;28;20037;-75
2022/06/24 00:07:59;;;;;;;12.02;7.30;;;;;;;23.22;62.24;100666.13;5035422;28;20052;-75
2022/06/24 00:10:31;;;;;;;11.63;6.60;;;;;;;23.22;62.62;100657.03;5035868;28;20053;-75
2022/06/24 00:12:56;;;;;;;12.57;7.45;;;;;;;23.23;62.65;100650.47;5035293;28;20022;-76
2022/06/24 00:15:43;;;;;;;12.70;8.05;;;;;;;23.22;62.67;100638.69;5035467;28;20106;-75
2022/06/24 00:18:16;;;;;;;21.60;9.05;;;;;;;23.23;63.00;100636.75;5035288;28;20116;-75
2022/06/24 00:20:43;;;;;;;15.90;9.05;;;;;;;23.18;64.32;100634.00;5031182;28;20038;-75
2022/06/24 00:23:08;;;;;;;16.38;9.02;;;;;;;23.12;65.01;100635.91;5035131;28;20033;-76
2022/06/24 00:25:36;;;;;;;17.02;10.73;;;;;;;23.03;65.29;100650.41;5017783;28;20021;-76
2022/06/24 00:28:09;;;;;;;20.13;11.02;;;;;;;22.93;66.01;100656.66;5034972;28;20062;-76
2022/06/24 00:30:37;;;;;;;21.48;11.98;;;;;;;22.84;66.27;100653.59;5035159;28;20042;-75
2022/06/24 00:33:14;;;;;;;33.17;13.70;;;;;;;22.83;68.91;100657.47;5035345;28;20053;-75
2022/06/24 00:35:41;;;;;;;;;;;;;;;22.70;72.26;100655.22;5034277;28;20050;-72
2022/06/24 00:38:37;;;;;;;35.35;17.38;;;;;;;22.36;75.70;100658.31;5011667;28;20356;-71
2022/06/24 00:41:07;;;;;;;50.57;21.13;;;;;;;22.03;81.71;100660.22;5014102;28;20029;-72
2022/06/24 00:43:33;;;;;;;42.28;22.23;;;;;;;21.76;83.17;100654.81;5013478;28;20034;-72
2022/06/24 00:46:17;;;;;;;37.33;22.58;;;;;;;21.55;87.17;100659.28;5014516;28;20032;-72
2022/06/24 00:48:51;;;;;;;39.85;22.48;;;;;;;21.33;88.55;100655.75;5013641;28;20058;-70
2022/06/24 00:51:18;;;;;;;36.28;21.85;;;;;;;21.14;87.75;100675.25;5020527;28;20037;-71
2022/06/24 00:53:45;;;;;;;39.67;25.27;;;;;;;20.85;87.68;100692.94;5034784;28;20032;-71
2022/06/24 00:56:12;;;;;;;38.53;26.17;;;;;;;20.74;89.33;100708.41;5036257;28;20025;-73
2022/06/24 00:58:38;;;;;;;40.90;24.67;;;;;;;20.66;89.72;100712.41;5036334;28;20263;-73
2022/06/24 01:01:03;;;;;;;42.10;25.17;;;;;;;20.60;90.46;100710.69;5022838;28;20081;-71
2022/06/24 01:03:40;;;;;;;43.08;26.42;;;;;;;20.46;91.09;100715.66;5017885;28;20036;-71
2022/06/24 01:06:06;;;;;;;49.08;28.33;;;;;;;20.33;92.13;100725.03;5018972;28;20120;-73
2022/06/24 01:08:32;;;;;;;36.97;26.23;;;;;;;20.30;92.86;100725.53;5016938;28;20121;-72
2022/06/24 01:10:57;;;;;;;43.28;29.02;;;;;;;20.25;93.50;100721.84;5020048;28;20022;-72
2022/06/24 01:13:23;;;;;;;44.22;29.20;;;;;;;20.15;93.96;100728.00;5016415;28;20025;-71
2022/06/24 01:15:48;;;;;;;49.70;30.20;;;;;;;20.06;94.96;100724.00;5016562;28;20026;-71
2022/06/24 01:18:13;;;;;;;48.47;29.35;;;;;;;19.94;95.42;100715.91;5019261;28;20029;-72
2022/06/24 01:20:39;;;;;;;41.50;28.80;;;;;;;19.94;95.72;100726.84;5027716;28;20049;-71
2022/06/24 01:23:04;;;;;;;46.08;29.63;;;;;;;19.92;96.75;100732.53;5031768;28;20041;-73
2022/06/24 01:25:31;;;;;;;44.15;28.00;;;;;;;19.90;97.29;100752.97;5032942;28;20022;-72
2022/06/24 01:27:57;;;;;;;41.22;28.48;;;;;;;19.69;97.34;100768.16;5025569;28;20030;-73
2022/06/24 01:30:22;;;;;;;45.00;28.70;;;;;;;19.61;97.63;100776.72;5017634;28;20472;-72
2022/06/24 01:32:48;;;;;;;39.22;27.45;;;;;;;19.49;97.60;100779.50;5018656;28;20052;-72
2022/06/24 01:35:13;;;;;;;44.17;28.67;;;;;;;19.41;98.47;100782.59;5017775;28;20080;-72
2022/06/24 01:37:39;;;;;;;44.17;28.45;;;;;;;19.26;98.47;100774.94;5019162;28;20125;-71
2022/06/24 01:40:05;;;;;;;45.40;29.17;;;;;;;19.18;99.01;100767.94;5017062;28;20021;-72
2022/06/24 01:42:30;;;;;;;46.00;29.70;;;;;;;19.06;99.92;100775.31;5018303;28;20096;-73
2022/06/24 01:44:55;;;;;;;56.65;32.78;;;;;;;18.96;100.00;100766.94;5017651;28;20482;-72
2022/06/24 01:47:21;;;;;;;50.63;32.13;;;;;;;18.96;100.00;100756.84;5019508;28;20066;-71
2022/06/24 01:49:46;;;;;;;52.00;34.42;;;;;;;18.95;100.00;100741.53;5017678;28;20512;-71
2022/06/24 01:52:12;;;;;;;60.33;36.92;;;;;;;19.05;100.00;100736.31;5017054;28;20421;-72
2022/06/24 01:54:37;;;;;;;55.90;35.42;;;;;;;19.16;100.00;100714.69;5015754;28;20026;-72
2022/06/24 01:57:03;;;;;;;49.10;32.10;;;;;;;19.20;100.00;100699.50;5020583;28;20037;-72
2022/06/24 01:59:28;;;;;;;67.95;39.53;;;;;;;19.30;100.00;100694.25;5021941;28;20090;-71
2022/06/24 02:01:53;;;;;;;56.90;37.60;;;;;;;19.25;100.00;100685.97;5023507;28;20094;-71
2022/06/24 02:04:19;;;;;;;60.05;36.28;;;;;;;19.16;100.00;100660.13;5020760;28;20053;-72
2022/06/24 02:06:44;;;;;;;52.25;32.33;;;;;;;19.24;100.00;100638.72;5017236;28;20029;-71
2022/06/24 02:09:09;;;;;;;49.58;29.95;;;;;;;19.24;100.00;100629.72;5020205;28;20021;-71
2022/06/24 02:14:19;;;;;;;43.15;25.45;;;;;;;19.14;100.00;100640.44;5016450;28;20153;-72
2022/06/24 02:16:45;;;;;;;39.35;24.17;;;;;;;19.11;100.00;100632.75;5017787;28;20054;-73
2022/06/24 02:19:11;;;;;;;38.63;25.75;;;;;;;19.10;100.00;100631.09;5020747;28;20022;-73
2022/06/24 02:21:36;;;;;;;36.47;24.65;;;;;;;19.13;100.00;100633.34;5019707;28;20065;-73
2022/06/24 02:24:03;;;;;;;35.90;22.83;;;;;;;19.13;100.00;100633.34;5020201;28;20022;-72
2022/06/24 02:26:28;;;;;;;31.50;21.38;;;;;;;19.16;100.00;100625.50;5020072;28;20034;-72
2022/06/24 02:28:54;;;;;;;30.40;20.83;;;;;;;19.13;100.00;100611.53;5019538;28;20029;-72
2022/06/24 02:31:20;;;;;;;26.73;18.42;;;;;;;19.10;100.00;100595.66;5019781;28;20083;-72
2022/06/24 02:33:48;;;;;;;24.38;16.35;;;;;;;19.04;100.00;100592.81;5057725;23;20064;-37
2022/06/24 02:36:14;;;;;;;23.65;16.08;;;;;;;18.97;100.00;100596.78;5056284;28;20045;-35
2022/06/24 02:38:39;;;;;;;28.20;18.88;;;;;;;18.95;100.00;100607.91;5069056;28;20043;-35
2022/06/24 02:41:05;;;;;;;25.33;17.63;;;;;;;18.94;100.00;100610.91;5073922;28;20078;-37
2022/06/24 02:43:37;;;;;;;30.00;19.05;;;;;;;18.95;100.00;100616.09;5075621;28;20021;-35
2022/06/24 02:46:07;;;;;;;32.60;18.27;;;;;;;18.98;100.00;100622.97;5075313;28;20044;-33
2022/06/24 02:48:34;;;;;;;24.02;17.42;;;;;;;18.92;100.00;100627.47;5073608;28;20097;-35
2022/06/24 02:51:02;;;;;;;26.30;18.00;;;;;;;18.80;100.00;100640.31;5074990;28;20025;-35
2022/06/24 02:53:29;;;;;;;24.75;17.80;;;;;;;18.79;100.00;100638.66;5062834;28;20048;-34
2022/06/24 02:56:05;;;;;;;30.38;18.20;;;;;;;18.77;100.00;100647.09;5072996;28;20028;-34
2022/06/24 02:58:31;;;;;;;26.40;19.00;;;;;;;18.83;100.00;100623.50;5070828;28;20055;-35
2022/06/24 03:00:57;;;;;;;22.98;16.98;;;;;;;18.87;100.00;100613.75;5073578;28;20013;-40
2022/06/24 03:03:23;;;;;;;31.67;21.75;;;;;;;18.92;100.00;100616.56;5069021;28;20032;-35
2022/06/24 03:05:49;;;;;;;32.50;19.90;;;;;;;18.91;100.00;100616.84;5058486;28;20020;-42
2022/06/24 03:08:16;;;;;;;26.85;18.88;;;;;;;18.83;100.00;100621.59;5049984;28;20025;-41
2022/06/24 03:10:43;;;;;;;29.70;19.00;;;;;;;18.82;100.00;100621.81;5031240;28;20116;-41
2022/06/24 03:13:08;;;;;;;31.40;20.17;;;;;;;18.79;100.00;100622.31;5039101;28;20052;-34
2022/06/24 03:15:34;;;;;;;34.90;23.95;;;;;;;18.82;100.00;100639.00;5039974;28;20021;-35
2022/06/24 03:17:59;;;;;;;40.28;24.33;;;;;;;18.84;100.00;100641.50;5055769;28;20039;-37
2022/06/24 03:20:25;;;;;;;37.25;25.45;;;;;;;18.83;100.00;100639.88;5055033;28;20102;-34
2022/06/24 03:22:50;;;;;;;42.05;26.05;;;;;;;18.81;100.00;100652.91;5054570;28;20031;-35
2022/06/24 03:25:16;;;;;;;50.88;26.88;;;;;;;18.74;100.00;100652.16;5058301;28;20052;-33
2022/06/24 03:27:42;;;;;;;44.45;28.10;;;;;;;18.75;100.00;100642.97;5065609;28;20036;-40
2022/06/24 03:30:09;;;;;;;52.17;29.13;;;;;;;18.78;100.00;100626.94;5069744;28;20017;-41
2022/06/24 03:32:34;;;;;;;52.13;30.65;;;;;;;18.80;100.00;100635.72;5063793;28;20025;-40
2022/06/24 03:35:00;;;;;;;58.72;32.85;;;;;;;18.83;100.00;100621.59;5066257;28;20038;-40
2022/06/24 03:37:26;;;;;;;60.45;35.13;;;;;;;18.85;100.00;100621.34;5058028;28;20025;-38
2022/06/24 03:39:52;;;;;;;69.72;40.90;;;;;;;18.84;100.00;100611.50;5051846;28;20095;-37
2022/06/24 03:42:17;;;;;;;79.13;43.00;;;;;;;18.84;100.00;100606.06;5054961;28;20029;-33
2022/06/24 03:44:43;;;;;;;96.90;50.13;;;;;;;18.91;100.00;100603.19;5044464;28;20032;-36
2022/06/24 03:47:08;;;;;;;99.57;50.95;;;;;;;18.91;100.00;100582.22;5062619;28;20511;-33
2022/06/24 03:49:33;;;;;;;97.32;48.85;;;;;;;18.91;100.00;100575.94;5073899;28;20051;-37
2022/06/24 03:51:59;;;;;;;93.68;47.85;;;;;;;18.84;100.00;100571.44;5069068;28;20039;-35
2022/06/24 03:54:24;;;;;;;83.18;44.35;;;;;;;18.84;100.00;100559.72;5054504;28;20021;-36
2022/06/24 03:56:50;;;;;;;80.40;40.13;;;;;;;18.74;100.00;100554.03;5060629;28;20077;-32
2022/06/24 03:59:15;;;;;;;87.65;41.80;;;;;;;18.73;100.00;100555.09;5063478;28;20029;-35
2022/06/24 04:01:41;;;;;;;72.50;38.60;;;;;;;18.75;100.00;100555.72;5061629;28;20079;-35
2022/06/24 04:04:06;;;;;;;72.88;38.35;;;;;;;18.75;100.00;100566.63;5053653;28;20044;-33
2022/06/24 04:06:31;;;;;;;82.45;39.05;;;;;;;18.72;100.00;100567.06;5057618;28;20029;-34
2022/06/24 04:08:57;;;;;;;65.90;36.63;;;;;;;18.77;100.00;100559.00;5070753;28;20029;-35
2022/06/24 04:11:23;;;;;;;75.88;35.40;;;;;;;18.81;100.00;100562.94;5052122;28;20101;-33
2022/06/24 04:13:48;;;;;;;73.40;34.97;;;;;;;18.83;100.00;100552.59;5059054;28;20031;-38
2022/06/24 04:16:14;;;;;;;54.22;31.52;;;;;;;18.79;100.00;100548.69;5058849;28;20013;-36
2022/06/24 04:18:39;;;;;;;68.28;33.92;;;;;;;18.75;100.00;100550.28;5058779;28;20551;-37
2022/06/24 04:21:13;;;;;;;71.47;35.38;;;;;;;18.77;100.00;100556.28;5059513;28;20047;-35
2022/06/24 04:23:38;;;;;;;66.90;37.80;;;;;;;18.80;100.00;100562.09;5070954;28;20056;-34
2022/06/24 04:26:04;;;;;;;67.90;38.15;;;;;;;18.76;100.00;100573.72;5064950;28;20033;-35
2022/06/24 04:28:29;;;;;;;69.65;38.03;;;;;;;18.73;100.00;100574.19;5064245;28;20029;-34
2022/06/24 04:30:54;;;;;;;71.80;38.67;;;;;;;18.71;100.00;100565.41;5058440;28;20032;-34
2022/06/24 04:33:20;;;;;;;66.63;36.17;;;;;;;18.77;100.00;100564.47;5060368;28;20040;-34
2022/06/24 04:35:45;;;;;;;62.38;36.40;;;;;;;18.78;100.00;100574.31;5057595;28;20100;-35
2022/06/24 04:38:11;;;;;;;67.28;35.28;;;;;;;18.80;100.00;100577.59;5059387;28;20014;-34
2022/06/24 04:40:36;;;;;;;68.78;38.33;;;;;;;18.82;100.00;100578.19;5060593;28;20021;-35
2022/06/24 04:43:02;;;;;;;83.80;40.65;;;;;;;18.78;100.00;100582.50;5060266;28;20049;-39
2022/06/24 04:45:27;;;;;;;73.55;38.28;;;;;;;18.84;100.00;100584.25;5057941;28;20045;-33
2022/06/24 04:47:52;;;;;;;72.28;38.80;;;;;;;18.86;100.00;100584.84;5057674;28;20029;-35
2022/06/24 04:50:18;;;;;;;80.63;40.22;;;;;;;18.89;100.00;100573.44;5058262;28;20021;-36
2022/06/24 04:52:43;;;;;;;69.78;33.30;;;;;;;18.76;100.00;100571.81;5061660;28;20100;-37
2022/06/24 04:55:09;;;;;;;57.63;31.38;;;;;;;18.68;100.00;100561.28;5060151;28;20063;-36
2022/06/24 04:57:35;;;;;;;75.00;37.03;;;;;;;18.75;100.00;100555.72;5057213;28;20017;-36
2022/06/24 05:00:01;;;;;;;73.22;37.22;;;;;;;18.82;100.00;100553.66;5057014;28;20025;-37
2022/06/24 05:02:26;;;;;;;56.10;33.35;;;;;;;18.78;100.00;100555.25;5054719;28;20787;-35
2022/06/24 05:04:51;;;;;;;60.97;28.45;;;;;;;18.70;100.00;100556.41;5056501;28;20048;-36
2022/06/24 05:07:17;;;;;;;57.30;29.25;;;;;;;18.70;100.00;100563.78;5056725;28;20032;-36
2022/06/24 05:09:43;;;;;;;43.40;25.83;;;;;;;18.55;100.00;100556.94;5060778;28;20039;-34
2022/06/24 05:12:09;;;;;;;41.72;23.85;;;;;;;18.55;100.00;100556.09;5057437;28;20083;-36
2022/06/24 05:14:34;;;;;;;43.47;23.83;;;;;;;18.61;100.00;100558.69;5074424;28;20032;-37
2022/06/24 05:16:59;;;;;;;43.50;23.63;;;;;;;18.62;100.00;100546.72;5077394;28;20464;-36
2022/06/24 05:19:25;;;;;;;41.65;24.13;;;;;;;18.67;100.00;100547.88;5076981;28;20029;-36
2022/06/24 05:21:51;;;;;;;37.22;23.08;;;;;;;18.71;100.00;100546.34;5063166;28;20081;-38
2022/06/24 05:24:16;;;;;;;36.42;23.45;;;;;;;18.69;100.00;100551.19;5076863;28;20036;-36
2022/06/24 05:26:45;;;;;;;39.55;22.23;;;;;;;18.69;100.00;100559.38;5074201;28;20016;-35
2022/06/24 05:29:11;;;;;;;39.22;23.33;;;;;;;18.72;100.00;100564.34;5070201;28;20044;-37
2022/06/24 05:31:36;;;;;;;36.70;22.73;;;;;;;18.67;100.00;100564.22;5067282;28;20055;-33
2022/06/24 05:34:02;;;;;;;33.88;21.08;;;;;;;18.72;100.00;100562.47;5068441;28;20022;-33
2022/06/24 05:36:27;;;;;;;33.83;18.08;;;;;;;18.53;100.00;100563.69;5058867;28;20041;-37
2022/06/24 05:38:53;;;;;;;29.27;17.75;;;;;;;18.49;100.00;100576.97;5068907;28;20020;-36
2022/06/24 05:41:18;;;;;;;29.63;19.17;;;;;;;18.59;100.00;100573.66;5061667;28;20036;-37
2022/06/24 05:43:45;;;;;;;28.20;18.25;;;;;;;18.60;100.00;100573.38;5059614;28;20046;-36
2022/06/24 05:46:10;;;;;;;23.85;16.10;;;;;;;18.56;100.00;100574.97;5057149;28;20030;-35
2022/06/24 05:48:36;;;;;;;28.08;16.20;;;;;;;18.42;100.00;100579.00;5056498;28;20179;-39
2022/06/24 05:51:13;;;;;;;27.13;15.30;;;;;;;18.37;100.00;100570.72;5058468;28;20045;-35
2022/06/24 05:56:23;;;;;;;19.58;14.80;;;;;;;18.39;100.00;100579.50;5076810;28;20139;-34
2022/06/24 05:58:49;;;;;;;24.38;14.88;;;;;;;18.39;100.00;100584.94;5075269;28;20043;-36
2022/06/24 06:01:14;;;;;;;23.38;14.57;;;;;;;18.45;100.00;100574.97;5060850;28;20017;-38
2022/06/24 06:03:40;;;;;;;23.52;14.75;;;;;;;18.47;100.00;100584.56;5056056;28;20089;-34
2022/06/24 06:06:06;;;;;;;23.27;14.13;;;;;;;18.46;100.00;100584.78;5055829;28;20017;-35
2022/06/24 06:08:32;;;;;;;23.05;14.63;;;;;;;18.53;100.00;100583.59;5056885;28;20140;-35
2022/06/24 06:10:57;;;;;;;24.75;14.23;;;;;;;18.65;100.00;100581.66;5056077;28;20029;-33
2022/06/24 06:13:23;;;;;;;20.05;12.93;;;;;;;18.64;100.00;100580.03;5055411;28;20022;-36
2022/06/24 06:15:48;;;;;;;18.42;10.80;;;;;;;18.45;100.00;100577.69;5064404;28;20028;-36
2022/06/24 06:18:13;;;;;;;15.23;10.77;;;;;;;18.46;100.00;100579.34;5062475;28;20029;-34
2022/06/24 06:20:39;;;;;;;21.83;11.18;;;;;;;18.50;100.00;100575.91;5056253;28;20075;-37
2022/06/24 06:23:05;;;;;;;14.85;11.00;;;;;;;18.55;100.00;100583.38;5055021;28;20037;-36
2022/06/24 06:25:31;;;;;;;15.35;11.02;;;;;;;18.50;100.00;100577.81;5056607;28;20017;-38
2022/06/24 06:27:57;;;;;;;18.35;10.77;;;;;;;18.63;100.00;100581.06;5048233;28;20025;-36
2022/06/24 06:30:22;;;;;;;18.50;12.40;;;;;;;18.60;100.00;100587.00;5054799;28;20029;-35
2022/06/24 06:32:47;;;;;;;18.92;11.13;;;;;;;18.58;99.35;100575.53;5052912;28;20053;-35
2022/06/24 06:35:13;;;;;;;18.33;12.25;;;;;;;18.55;98.82;100575.19;5055271;28;20125;-37
2022/06/24 06:37:38;;;;;;;19.63;12.68;;;;;;;18.62;99.36;100579.44;5055468;28;20029;-35
2022/06/24 06:40:04;;;;;;;24.02;12.55;;;;;;;18.62;99.36;100578.59;5055181;28;20018;-32
2022/06/24 06:42:29;;;;;;;21.77;14.15;;;;;;;18.68;99.37;100583.09;5053711;28;20029;-35
2022/06/24 06:44:55;;;;;;;21.50;13.55;;;;;;;18.77;99.16;100589.84;5055103;28;20048;-33
2022/06/24 06:47:20;;;;;;;22.92;14.32;;;;;;;18.74;98.33;100586.75;5055044;28;20033;-38
2022/06/24 06:49:46;;;;;;;21.15;13.55;;;;;;;18.77;97.88;100592.59;5054897;28;20040;-34
2022/06/24 06:52:11;;;;;;;25.38;15.18;;;;;;;18.86;97.78;100590.28;5055364;28;20029;-33
2022/06/24 06:54:37;;;;;;;20.40;13.77;;;;;;;18.96;98.32;100592.41;5053199;28;20030;-34
2022/06/24 06:57:03;;;;;;;25.85;14.40;;;;;;;19.08;97.68;100595.88;5050640;28;20048;-37
2022/06/24 06:59:28;;;;;;;28.55;15.77;;;;;;;19.21;96.78;100600.22;5052665;28;20017;-35
2022/06/24 07:01:53;;;;;;;21.10;15.38;;;;;;;19.28;95.75;100603.63;5052855;28;20030;-34
2022/06/24 07:04:19;;;;;;;22.73;15.18;;;;;;;19.37;95.89;100602.13;5053214;28;20041;-33
2022/06/24 07:06:44;;;;;;;24.02;15.40;;;;;;;19.37;95.95;100607.59;5047196;28;20049;-35
2022/06/24 07:09:10;;;;;;;29.27;16.10;;;;;;;19.24;95.07;100602.44;5046233;28;20018;-37
2022/06/24 07:11:35;;;;;;;22.85;16.52;;;;;;;19.30;95.82;100598.75;5051844;28;20021;-37
2022/06/24 07:14:01;;;;;;;27.52;18.83;;;;;;;19.49;95.53;100597.44;5053098;28;20048;-36
2022/06/24 07:16:26;;;;;;;33.80;19.50;;;;;;;19.33;94.17;100609.16;5050462;28;20010;-36
2022/06/24 07:18:52;;;;;;;32.70;21.83;;;;;;;19.30;94.42;100607.75;5051178;28;20033;-39
2022/06/24 07:21:17;;;;;;;40.28;23.60;;;;;;;19.21;95.18;100608.41;5051820;28;20093;-38
2022/06/24 07:23:43;;;;;;;35.75;23.77;;;;;;;19.15;95.44;100615.66;5050360;28;20076;-37
2022/06/24 07:26:08;;;;;;;40.85;25.25;;;;;;;19.25;96.69;100615.03;5050155;28;20081;-38
2022/06/24 07:28:34;;;;;;;45.65;28.23;;;;;;;19.42;96.70;100609.59;5048345;28;20021;-34
2022/06/24 07:30:59;;;;;;;44.58;28.48;;;;;;;19.51;96.78;100608.94;5051071;28;20408;-39
2022/06/24 07:33:24;;;;;;;51.08;28.20;;;;;;;19.50;95.79;100607.28;5051330;28;20041;-37
2022/06/24 07:35:50;;;;;;;46.38;28.35;;;;;;;19.43;94.08;100594.84;5051919;28;20048;-38
2022/06/24 07:38:16;;;;;;;47.90;29.88;;;;;;;19.62;95.21;100598.19;5053478;28;20088;-35
2022/06/24 07:40:41;;;;;;;49.63;29.67;;;;;;;19.60;93.92;100589.44;5043959;28;20065;-36
2022/06/24 07:43:07;;;;;;;45.05;29.02;;;;;;;19.56;92.58;100593.72;5040155;28;20114;-38
2022/06/24 07:45:33;;;;;;;47.80;30.95;;;;;;;19.53;92.83;100595.84;5057982;28;20029;-35
2022/06/24 07:47:58;;;;;;;48.15;29.90;;;;;;;19.60;92.06;100590.25;5058442;28;20017;-40
2022/06/24 07:50:23;;;;;;;50.25;31.48;;;;;;;19.90;93.07;100594.56;5058008;28;20060;-35
2022/06/24 07:52:49;;;;;;;47.20;29.77;;;;;;;19.96;90.85;100590.84;5058173;28;20356;-37
2022/06/24 07:57:58;;;;;;;43.58;28.48;;;;;;;20.03;90.01;100587.94;5058165;28;20036;-35
2022/06/24 08:00:24;;;;;;;46.15;28.75;;;;;;;20.09;89.94;100598.69;5057631;28;20089;-38
2022/06/24 08:02:49;;;;;;;46.03;29.23;;;;;;;20.09;88.93;100592.38;5049420;28;20043;-38
2022/06/24 08:05:15;;;;;;;55.83;29.52;;;;;;;20.09;88.57;100589.66;5057915;28;20085;-35
2022/06/24 08:07:41;;;;;;;44.10;28.02;;;;;;;20.42;89.71;100587.91;5058264;28;20078;-37
2022/06/24 08:10:06;;;;;;;49.97;29.70;;;;;;;20.60;89.48;100593.09;5058654;28;20052;-34
2022/06/24 08:12:32;;;;;;;39.88;25.77;;;;;;;20.31;84.69;100590.50;5058266;28;20033;-35
2022/06/24 08:14:57;;;;;;;44.20;26.77;;;;;;;20.34;84.90;100592.75;5041897;28;20033;-35
2022/06/24 08:17:23;;;;;;;43.72;26.10;;;;;;;20.45;85.12;100596.44;5034113;28;20404;-35
2022/06/24 08:19:48;;;;;;;41.75;22.77;;;;;;;20.33;83.19;100593.81;5033758;28;20052;-36
2022/06/24 08:22:13;;;;;;;35.75;22.02;;;;;;;20.41;81.67;100597.22;5033732;28;20029;-36
2022/06/24 08:24:40;;;;;;;34.38;22.63;;;;;;;20.46;81.51;100597.25;5033485;28;20083;-33
2022/06/24 08:27:06;;;;;;;38.63;23.47;;;;;;;20.58;80.52;100607.03;5033795;28;20029;-34
2022/06/24 08:29:31;;;;;;;33.80;21.23;;;;;;;20.87;79.71;100597.78;5029378;28;20031;-35
2022/06/24 08:31:56;;;;;;;35.85;21.40;;;;;;;21.26;79.03;100604.78;5033199;28;20456;-34
2022/06/24 08:34:22;;;;;;;29.90;20.23;;;;;;;21.81;77.88;100596.53;5032393;28;20067;-33
2022/06/24 08:36:47;;;;;;;29.30;19.88;;;;;;;21.94;75.05;100595.25;5032867;28;20033;-36
2022/06/24 08:39:13;;;;;;;34.17;20.23;;;;;;;21.87;73.26;100589.97;5010605;28;20093;-34
2022/06/24 08:41:39;;;;;;;30.98;19.85;;;;;;;21.84;73.97;100590.50;5011559;28;20099;-34
2022/06/24 08:44:04;;;;;;;34.17;19.77;;;;;;;21.90;73.68;100589.44;5017963;28;20105;-34
2022/06/24 08:46:30;;;;;;;31.25;18.85;;;;;;;22.02;73.79;100586.53;5033187;28;20384;-34
2022/06/24 08:48:58;;;;;;;29.77;18.77;;;;;;;21.93;73.20;100588.91;5031505;28;20029;-34
2022/06/24 08:51:24;;;;;;;24.90;16.48;;;;;;;21.39;72.96;100578.91;5032954;28;20159;-34
2022/06/24 08:54:00;;;;;;;29.60;18.27;;;;;;;21.19;74.37;100584.16;5032366;28;20034;-34
2022/06/24 08:56:26;;;;;;;23.73;15.40;;;;;;;21.12;74.14;100586.31;5031568;28;20044;-34
2022/06/24 08:58:53;;;;;;;29.88;16.55;;;;;;;20.93;73.12;100585.81;5031638;28;20030;-33
2022/06/24 09:01:18;;;;;;;23.02;15.63;;;;;;;20.81;74.13;100594.19;5031984;28;20437;-34
2022/06/24 09:03:44;;;;;;;26.55;15.95;;;;;;;20.66;73.49;100594.00;5032428;28;20030;-33
2022/06/24 09:06:14;;;;;;;23.52;14.85;;;;;;;20.65;74.19;100584.97;5031924;28;20033;-35
2022/06/24 09:08:41;;;;;;;24.23;14.27;;;;;;;20.82;73.71;100585.69;5032027;28;20033;-34
2022/06/24 09:11:07;;;;;;;25.17;15.02;;;;;;;20.87;72.75;100586.84;5030884;28;20029;-33
2022/06/24 09:13:55;;;;;;;23.45;14.38;;;;;;;21.21;74.52;100592.94;5032297;28;20052;-33
2022/06/24 09:16:24;;;;;;;21.27;13.23;;;;;;;21.36;73.01;100586.81;5031838;28;20045;-33
2022/06/24 09:19:00;;;;;;;17.80;11.23;;;;;;;22.06;69.69;100593.94;5032092;28;20364;-34
2022/06/24 09:21:32;;;;;;;17.88;10.18;;;;;;;22.95;64.85;100583.94;5030879;28;20025;-35
2022/06/24 09:24:00;;;;;;;15.70;9.15;;;;;;;24.08;62.66;100584.84;5032110;28;20119;-34
2022/06/24 09:26:34;;;;;;;11.43;6.80;;;;;;;24.62;58.19;100588.81;5031403;28;20018;-33
2022/06/24 09:29:00;;;;;;;14.93;6.35;;;;;;;24.75;55.82;100595.66;5029341;28;20532;-37
2022/06/24 09:31:27;;;;;;;12.10;5.78;;;;;;;25.21;55.86;100589.91;5031148;28;20029;-34
2022/06/24 09:33:53;;;;;;;15.27;6.30;;;;;;;25.05;53.07;100586.38;5031701;28;20380;-33
2022/06/24 09:36:22;;;;;;;8.15;5.60;;;;;;;25.56;53.30;100586.03;5031395;28;20061;-34
2022/06/24 09:39:06;;;;;;;9.55;5.38;;;;;;;25.62;52.73;100578.56;5031532;28;20053;-33
2022/06/24 09:41:45;;;;;;;8.98;4.20;;;;;;;26.18;52.89;100596.53;5029453;28;20053;-33
2022/06/24 09:44:10;;;;;;;7.30;2.90;;;;;;;26.16;50.18;100593.22;5030978;28;20425;-33
2022/06/24 09:46:36;;;;;;;6.75;2.83;;;;;;;26.15;49.36;100592.41;5029599;28;20045;-32
2022/06/24 09:49:06;;;;;;;7.03;2.95;;;;;;;25.12;49.46;100592.41;5031746;28;20077;-34
2022/06/24 09:51:31;;;;;;;2.33;2.05;;;;;;;25.04;50.16;100582.00;5031155;28;20105;-35
2022/06/24 09:53:57;;;;;;;4.07;1.70;;;;;;;25.41;49.74;100577.91;5031089;28;20388;-35
2022/06/24 09:56:23;;;;;;;1.88;1.45;;;;;;;26.23;48.73;100590.94;5046865;28;20037;-35
2022/06/24 10:01:37;;;;;;;4.82;1.80;;;;;;;26.52;46.88;100592.84;5031161;28;20040;-33
2022/06/24 10:04:04;;;;;;;3.85;1.70;;;;;;;27.33;44.88;100588.13;5030705;28;20425;-34
2022/06/24 10:06:32;;;;;;;4.30;1.45;;;;;;;28.04;43.86;100585.28;5029705;28;20025;-33
2022/06/24 10:08:59;;;;;;;6.50;2.10;;;;;;;27.69;43.34;100585.59;5029183;28;20023;-34
2022/06/24 10:11:25;;;;;;;4.05;1.85;;;;;;;28.27;43.30;100578.75;5029721;28;20021;-33
2022/06/24 10:13:51;;;;;;;5.57;2.00;;;;;;;28.39;42.57;100592.09;5031993;28;20059;-33
2022/06/24 10:16:16;;;;;;;4.22;1.92;;;;;;;28.23;41.38;100589.63;5030723;28;20429;-35
2022/06/24 10:18:43;;;;;;;3.47;1.70;;;;;;;27.95;41.30;100587.94;5029699;28;20048;-35
2022/06/24 10:21:10;;;;;;;4.05;1.70;;;;;;;27.55;42.91;100584.75;5030583;28;20061;-32
2022/06/24 10:23:46;;;;;;;4.68;1.83;;;;;;;28.06;43.27;100585.81;5030853;28;20460;-34
2022/06/24 10:26:22;;;;;;;4.97;1.67;;;;;;;28.24;42.94;100596.78;5030760;28;20523;-33
2022/06/24 10:29:00;;;;;;;3.70;2.10;;;;;;;27.64;41.14;100587.63;5029110;28;20163;-35
2022/06/24 10:31:37;;;;;;;4.00;2.05;;;;;;;27.46;43.20;100586.53;5010994;28;20038;-34
2022/06/24 10:34:03;;;;;;;2.97;1.95;;;;;;;27.47;42.56;100577.16;5022427;28;20049;-33
2022/06/24 10:36:32;;;;;;;5.57;2.20;;;;;;;28.40;42.08;100577.94;5030999;28;20422;-36
2022/06/24 10:39:14;;;;;;;3.90;1.80;;;;;;;28.86;39.88;100590.03;5030608;28;20168;-34
2022/06/24 10:41:41;;;;;;;8.10;1.83;;;;;;;29.52;38.51;100582.94;5009274;28;20117;-34
2022/06/24 10:44:25;;;;;;;;;;;;;;;29.44;36.91;100583.69;5029150;28;20025;-34
2022/06/24 10:47:05;;;;;;;1.48;1.30;;;;;;;29.86;37.11;100584.31;5029335;28;19921;-36
2022/06/24 10:49:52;;;;;;;2.75;1.85;;;;;;;29.06;37.29;100567.41;5030571;28;20030;-33
2022/06/24 10:52:33;;;;;;;2.47;1.83;;;;;;;28.92;37.72;100568.56;5028637;28;20183;-34
2022/06/24 10:57:42;;;;;;;7.15;2.30;;;;;;;27.74;40.72;100560.63;5010440;28;20030;-35
2022/06/24 11:00:16;;;;;;;5.07;2.97;;;;;;;26.79;42.21;100570.94;5027358;28;20125;-36
2022/06/24 11:02:42;;;;;;;5.57;2.85;;;;;;;26.21;45.54;100562.81;5029002;28;20022;-36
2022/06/24 11:05:11;;;;;;;3.90;2.70;;;;;;;25.74;46.66;100558.88;5028110;28;20522;-36
2022/06/24 11:07:48;;;;;;;8.00;2.65;;;;;;;25.75;45.97;100563.25;5029485;28;20043;-33
2022/06/24 11:10:21;;;;;;;6.00;3.50;;;;;;;25.22;48.02;100555.72;5028545;28;20087;-37
2022/06/24 11:12:56;;;;;;;5.57;3.65;;;;;;;24.92;48.27;100548.47;5023534;28;20124;-34
2022/06/24 11:15:32;;;;;;;6.72;3.50;;;;;;;24.84;47.95;100552.66;5017046;28;20029;-37
2022/06/24 11:17:57;;;;;;;5.93;2.75;;;;;;;24.89;49.18;100540.78;5027302;28;20034;-35
2022/06/24 11:20:23;;;;;;;5.25;3.05;;;;;;;24.93;49.15;100553.69;5026048;28;20060;-36
2022/06/24 11:22:48;;;;;;;7.88;2.88;;;;;;;24.72;47.92;100546.66;5028783;28;20380;-34